Time;durP1;ratioP1;P1;durP2;ratioP2;P2;SDS_P1;SDS_P2;PMS_P1;PMS_P2;Temp;Humidity;BMP_temperature;BMP_pressure;BME280_temperature;BME280_humidity;BME280_pressure;Samples;Min_cycle;Max_cycle;Signal;HPM_P1;HPM_P2
2022/07/17 00:02:17;;;;;;;4.77;1.50;;;12.50;99.90;;;;;;10481830;28;20486;-79
2022/07/17 00:07:38;;;;;;;2.87;1.30;;;12.40;99.90;;;;;;10481766;28;20203;-79
2022/07/17 00:13:00;;;;;;;4.30;1.33;;;12.40;99.90;;;;;;10481377;28;20246;-79
2022/07/17 00:18:21;;;;;;;1.70;1.20;;;12.40;99.90;;;;;;10509779;28;20308;-79
2022/07/17 00:23:43;;;;;;;3.47;1.47;;;12.30;99.90;;;;;;10481307;28;20546;-79
2022/07/17 00:29:04;;;;;;;3.63;1.27;;;12.30;99.90;;;;;;10481146;28;20269;-79
2022/07/17 00:34:26;;;;;;;2.87;1.27;;;12.30;99.90;;;;;;10483663;28;20234;-78
2022/07/17 00:39:49;;;;;;;7.33;1.73;;;12.30;99.90;;;;;;10466095;28;20225;-79
2022/07/17 00:45:12;;;;;;;2.67;1.43;;;12.20;99.90;;;;;;10480045;28;20206;-79
2022/07/17 00:50:36;;;;;;;6.03;1.50;;;12.20;99.90;;;;;;10482348;28;20201;-79
2022/07/17 00:56:00;;;;;;;2.97;1.20;;;12.30;99.90;;;;;;10465699;28;20482;-79
2022/07/17 01:01:22;;;;;;;5.23;1.17;;;12.20;99.90;;;;;;10479800;28;20194;-80
2022/07/17 01:06:44;;;;;;;2.90;1.33;;;12.20;99.90;;;;;;10480690;28;20269;-79
2022/07/17 01:12:09;;;;;;;3.03;1.10;;;12.30;99.90;;;;;;10474454;28;20257;-80
2022/07/17 01:17:31;;;;;;;3.63;1.40;;;12.30;99.90;;;;;;10448878;28;20230;-79
2022/07/17 01:22:52;;;;;;;2.93;1.23;;;12.30;99.90;;;;;;10479915;28;20194;-85
2022/07/17 01:28:14;;;;;;;3.20;1.00;;;12.30;99.90;;;;;;10464808;28;20199;-86
2022/07/17 01:33:35;;;;;;;2.47;0.83;;;12.30;99.90;;;;;;10464456;28;20222;-86
2022/07/17 01:38:57;;;;;;;2.20;0.80;;;12.30;99.90;;;;;;10480033;28;20244;-83
2022/07/17 01:44:19;;;;;;;5.73;1.10;;;12.30;99.90;;;;;;10463476;28;20210;-79
2022/07/17 01:49:44;;;;;;;3.60;1.13;;;12.30;99.90;;;;;;10478161;28;20205;-86
2022/07/17 01:55:08;;;;;;;1.20;0.80;;;12.30;99.90;;;;;;10477979;28;20226;-84
2022/07/17 02:00:30;;;;;;;2.93;0.93;;;12.30;99.90;;;;;;10504556;28;20390;-83
2022/07/17 02:05:51;;;;;;;2.97;0.93;;;12.30;99.90;;;;;;10505560;28;20497;-86
2022/07/17 02:11:12;;;;;;;2.17;0.97;;;12.30;99.90;;;;;;10487478;28;20303;-83
2022/07/17 02:16:34;;;;;;;1.10;0.83;;;12.30;99.90;;;;;;10504361;28;20267;-86
2022/07/17 02:21:55;;;;;;;5.53;0.90;;;12.30;99.90;;;;;;10481665;28;20370;-83
2022/07/17 02:27:17;;;;;;;2.97;0.90;;;12.30;99.90;;;;;;10477436;28;20191;-82
2022/07/17 02:32:40;;;;;;;1.50;0.60;;;12.30;99.90;;;;;;10452742;28;20262;-85
2022/07/17 02:38:01;;;;;;;4.20;1.23;;;12.30;99.90;;;;;;10454653;28;20286;-80
2022/07/17 02:43:23;;;;;;;2.23;0.80;;;12.30;99.90;;;;;;10482566;28;20209;-81
2022/07/17 02:48:45;;;;;;;3.07;1.00;;;12.30;99.90;;;;;;10485204;28;20210;-85
2022/07/17 02:54:06;;;;;;;6.07;1.70;;;12.30;99.90;;;;;;10461399;28;20326;-78
2022/07/17 02:59:29;;;;;;;2.23;0.93;;;12.30;99.90;;;;;;10485083;28;20193;-82
2022/07/17 03:04:51;;;;;;;2.10;0.90;;;12.30;99.90;;;;;;10486002;28;20524;-80
2022/07/17 03:10:14;;;;;;;2.87;0.77;;;12.30;99.90;;;;;;10484928;28;20241;-81
2022/07/17 03:15:36;;;;;;;1.40;0.77;;;12.30;99.90;;;;;;10503611;28;20225;-82
2022/07/17 03:20:57;;;;;;;4.80;1.10;;;12.30;99.90;;;;;;10501576;28;20201;-84
2022/07/17 03:26:18;;;;;;;2.87;1.37;;;12.30;99.90;;;;;;10484300;28;20215;-81
2022/07/17 03:31:42;;;;;;;1.07;0.60;;;12.40;99.90;;;;;;10443572;28;20408;-85
2022/07/17 03:37:04;;;;;;;2.83;0.90;;;12.50;99.90;;;;;;10446003;28;20205;-85
2022/07/17 03:42:26;;;;;;;2.63;1.03;;;12.60;99.90;;;;;;10486074;28;20202;-85
2022/07/17 03:47:47;;;;;;;2.50;0.80;;;12.70;99.90;;;;;;10469186;28;20361;-82
2022/07/17 03:53:08;;;;;;;2.03;0.83;;;12.80;99.90;;;;;;10481710;28;20241;-81
2022/07/17 03:58:30;;;;;;;4.23;0.90;;;12.80;99.90;;;;;;10482618;28;20197;-81
2022/07/17 04:03:52;;;;;;;5.90;1.23;;;12.90;99.90;;;;;;10482570;28;20210;-85
2022/07/17 04:16:08;;;;;;;2.87;0.90;;;13.00;99.90;;;;;;10505725;28;20225;-85
2022/07/17 04:21:29;;;;;;;3.53;1.13;;;13.10;99.90;;;;;;10486722;28;20205;-81
2022/07/17 04:26:51;;;;;;;3.90;0.90;;;13.10;99.90;;;;;;10467587;28;20199;-80
2022/07/17 04:32:13;;;;;;;1.70;0.80;;;13.10;99.90;;;;;;10481589;28;20237;-86
2022/07/17 04:37:34;;;;;;;2.70;1.00;;;13.20;99.90;;;;;;10480567;28;20200;-80
2022/07/17 04:42:55;;;;;;;2.93;1.30;;;13.10;99.90;;;;;;10495465;28;20759;-82
2022/07/17 04:48:17;;;;;;;2.07;1.40;;;13.20;99.90;;;;;;10466089;28;20281;-84
2022/07/17 04:53:39;;;;;;;1.50;1.33;;;13.20;99.90;;;;;;10481310;28;20214;-85
2022/07/17 04:59:01;;;;;;;2.37;1.20;;;13.30;99.90;;;;;;10450788;28;20194;-85
2022/07/17 05:04:24;;;;;;;4.90;1.33;;;13.40;99.90;;;;;;10481109;28;20206;-82
2022/07/17 05:09:48;;;;;;;1.92;0.90;;;13.50;99.90;;;;;;10479407;28;20444;-85
2022/07/17 05:15:09;;;;;;;2.43;1.10;;;13.60;99.90;;;;;;10494341;28;20244;-85
2022/07/17 05:20:31;;;;;;;3.37;1.33;;;13.80;99.90;;;;;;10486612;28;20252;-86
2022/07/17 05:25:52;;;;;;;2.78;1.25;;;13.90;99.90;;;;;;10479293;28;20199;-83
2022/07/17 05:31:13;;;;;;;3.70;0.93;;;14.10;99.90;;;;;;10479143;28;20206;-81
2022/07/17 05:36:35;;;;;;;2.97;1.00;;;14.20;99.90;;;;;;10479185;28;20224;-85
2022/07/17 05:41:56;;;;;;;4.03;1.17;;;14.40;99.90;;;;;;10479082;28;20461;-82
2022/07/17 05:47:18;;;;;;;4.13;1.35;;;14.60;99.90;;;;;;10478422;28;20204;-85
2022/07/17 05:52:39;;;;;;;5.07;1.00;;;14.80;99.90;;;;;;10453658;28;20220;-86
2022/07/17 05:58:01;;;;;;;3.58;0.93;;;14.90;99.90;;;;;;10470186;28;20189;-83
2022/07/17 06:03:22;;;;;;;2.58;1.08;;;15.10;99.90;;;;;;10477886;28;20273;-83
2022/07/17 06:08:44;;;;;;;2.83;0.80;;;15.30;99.90;;;;;;10478505;28;20198;-83
2022/07/17 06:14:05;;;;;;;4.18;0.85;;;15.50;99.90;;;;;;10477882;28;20299;-86
2022/07/17 06:19:26;;;;;;;8.68;1.80;;;15.70;99.90;;;;;;10481364;28;20290;-85
2022/07/17 06:24:48;;;;;;;6.45;1.25;;;16.00;99.90;;;;;;10463585;28;20215;-81
2022/07/17 06:30:13;;;;;;;4.38;1.00;;;16.10;99.90;;;;;;10477446;28;20190;-85
2022/07/17 06:35:34;;;;;;;4.82;1.48;;;16.40;99.90;;;;;;10477551;28;20243;-86
2022/07/17 06:40:57;;;;;;;4.82;1.38;;;16.60;49.30;;;;;;10463068;28;20278;-85
2022/07/17 06:46:18;;;;;;;1.88;0.75;;;17.10;28.80;;;;;;10462874;28;20503;-82
2022/07/17 06:51:40;;;;;;;3.80;0.80;;;;;;;;;;10477103;28;20214;-86
2022/07/17 06:57:01;;;;;;;2.08;0.82;;;18.20;1.00;;;;;;10462598;28;20230;-84
2022/07/17 07:02:23;;;;;;;2.00;0.75;;;17.90;1.00;;;;;;10476901;28;20202;-86
2022/07/17 07:07:44;;;;;;;5.72;1.00;;;18.00;1.00;;;;;;10476708;28;20206;-85
2022/07/17 07:13:06;;;;;;;6.78;1.35;;;19.20;1.00;;;;;;10477262;28;20227;-85
2022/07/17 07:18:28;;;;;;;5.32;1.13;;;;;;;;;;10474596;28;20283;-86
2022/07/17 07:23:50;;;;;;;2.00;1.00;;;20.20;1.00;;;;;;10481564;28;20196;-86
2022/07/17 07:29:11;;;;;;;2.28;0.75;;;20.50;1.00;;;;;;10465097;28;20226;-85
2022/07/17 07:34:36;;;;;;;3.03;0.90;;;21.00;1.00;;;;;;10484518;28;20227;-84
2022/07/17 07:39:59;;;;;;;2.75;0.85;;;21.70;1.00;;;;;;10484258;28;20196;-79
2022/07/17 07:45:20;;;;;;;2.47;0.82;;;21.40;99.90;;;;;;10482578;28;20248;-78
2022/07/17 07:50:42;;;;;;;2.22;1.00;;;22.10;99.90;;;;;;10482324;28;20418;-78
2022/07/17 07:56:04;;;;;;;3.85;1.10;;;21.70;99.90;;;;;;10481944;28;20223;-78
2022/07/17 08:01:25;;;;;;;2.58;0.93;;;22.40;94.60;;;;;;10484608;28;20206;-81
2022/07/17 08:06:47;;;;;;;4.07;1.20;;;23.40;1.00;;;;;;10457253;28;20254;-78
2022/07/17 08:12:08;;;;;;;4.50;1.02;;;24.00;1.00;;;;;;10452774;28;20277;-79
2022/07/17 08:17:35;;;;;;;2.40;0.85;;;22.70;1.00;;;;;;10495733;28;20257;-78
2022/07/17 08:22:56;;;;;;;3.20;1.20;;;21.00;1.00;;;;;;10481127;28;20558;-79
2022/07/17 08:28:26;;;;;;;3.97;1.38;;;20.20;99.90;;;;;;10495280;28;20192;-78
2022/07/17 08:33:47;;;;;;;4.90;1.00;;;21.10;28.60;;;;;;10480988;28;20239;-80
2022/07/17 08:44:29;;;;;;;4.78;1.25;;;22.90;99.90;;;;;;10479748;28;20502;-78
2022/07/17 08:49:51;;;;;;;2.63;0.60;;;23.30;1.00;;;;;;10479921;28;20227;-79
2022/07/17 08:55:13;;;;;;;2.95;1.13;;;23.50;1.00;;;;;;10465518;28;20233;-78
2022/07/17 09:00:35;;;;;;;3.85;1.00;;;23.80;1.00;;;;;;10479670;28;20203;-79
2022/07/17 09:05:56;;;;;;;4.78;1.50;;;24.40;99.90;;;;;;10465172;28;20246;-78
2022/07/17 09:11:18;;;;;;;3.20;1.00;;;24.40;95.20;;;;;;10464595;28;20278;-78
2022/07/17 09:16:54;;;;;;;3.10;1.00;;;24.60;1.00;;;;;;10495669;28;20215;-81
2022/07/17 09:22:23;;;;;;;3.72;1.30;;;24.10;1.00;;;;;;10493408;28;20579;-84
2022/07/17 09:27:46;;;;;;;5.10;1.38;;;22.90;1.00;;;;;;10481391;28;20383;-82
2022/07/17 09:33:15;;;;;;;3.22;0.98;;;21.60;1.00;;;;;;10465032;28;20322;-86
2022/07/17 09:38:39;;;;;;;6.55;1.13;;;20.90;1.00;;;;;;10478572;28;20200;-86
2022/07/17 09:44:01;;;;;;;5.55;1.50;;;21.90;99.90;;;;;;10464860;28;20196;-82
2022/07/17 09:49:27;;;;;;;4.93;1.17;;;23.10;1.00;;;;;;10480590;28;20212;-81
2022/07/17 09:54:53;;;;;;;3.25;1.15;;;24.00;1.00;;;;;;10478208;28;20544;-87
2022/07/17 10:00:23;;;;;;;4.65;1.45;;;24.80;1.00;;;;;;10479301;28;20504;-84
2022/07/17 10:05:45;;;;;;;4.07;0.90;;;24.60;99.90;;;;;;10480374;28;20207;-83
2022/07/17 10:11:08;;;;;;;4.20;1.20;;;24.20;1.00;;;;;;10478219;28;20234;-86
2022/07/17 10:16:32;;;;;;;9.73;1.20;;;24.40;99.90;;;;;;10483673;28;20259;-86
2022/07/17 10:22:05;;;;;;;6.07;1.80;;;24.50;99.90;;;;;;10477713;28;20192;-87
2022/07/17 10:27:29;;;;;;;1.90;0.82;;;23.70;99.90;;;;;;10477294;28;20737;-80
2022/07/17 10:32:58;;;;;;;2.28;0.95;;;24.20;99.90;;;;;;10477143;28;20231;-78
2022/07/17 10:38:21;;;;;;;2.60;0.77;;;24.80;38.50;;;;;;10476573;28;20211;-82
2022/07/17 10:43:46;;;;;;;5.55;0.93;;;25.40;34.60;;;;;;10476827;28;20242;-81
2022/07/17 10:49:07;;;;;;;2.70;1.05;;;25.70;1.00;;;;;;10495952;28;20203;-79
2022/07/17 10:54:35;;;;;;;4.05;1.10;;;25.50;1.00;;;;;;10477290;28;20627;-79
2022/07/17 10:59:57;;;;;;;3.53;1.27;;;25.10;1.00;;;;;;10478904;28;20416;-80
2022/07/17 11:05:19;;;;;;;6.50;1.45;;;24.80;94.30;;;;;;10483501;28;20192;-81
2022/07/17 11:10:40;;;;;;;2.28;1.00;;;24.80;1.00;;;;;;10484989;28;20302;-85
2022/07/17 11:16:02;;;;;;;6.47;1.17;;;24.50;1.00;;;;;;10493468;28;20297;-83
2022/07/17 11:21:23;;;;;;;2.25;0.90;;;24.60;1.00;;;;;;10484003;28;20219;-85
2022/07/17 11:26:49;;;;;;;1.58;0.85;;;24.80;1.00;;;;;;10469333;28;20196;-83
2022/07/17 11:32:10;;;;;;;4.40;1.02;;;25.20;1.00;;;;;;10486064;28;20226;-80
2022/07/17 11:37:32;;;;;;;4.63;1.00;;;24.60;1.00;;;;;;10468396;28;20226;-80
2022/07/17 11:43:00;;;;;;;0.82;0.75;;;25.00;1.00;;;;;;10483312;28;20200;-84
2022/07/17 11:48:22;;;;;;;4.70;1.10;;;25.40;99.90;;;;;;10497197;28;20456;-80
2022/07/17 11:53:43;;;;;;;5.68;1.20;;;25.20;1.00;;;;;;10496948;28;20225;-83
2022/07/17 11:59:06;;;;;;;3.45;1.13;;;25.30;1.00;;;;;;10507445;28;20199;-83
2022/07/17 12:04:27;;;;;;;3.92;1.20;;;25.40;1.00;;;;;;10525130;28;20282;-79
2022/07/17 12:09:49;;;;;;;2.58;1.10;;;25.60;1.00;;;;;;10470175;28;20467;-80
2022/07/17 12:15:10;;;;;;;2.60;1.25;;;26.00;99.90;;;;;;10483505;28;20268;-83
2022/07/17 12:20:47;;;;;;;5.05;1.23;;;25.90;99.90;;;;;;10502910;28;20461;-82
2022/07/17 12:26:16;;;;;;;3.13;0.88;;;25.50;99.90;;;;;;10495574;28;20416;-82
2022/07/17 12:31:38;;;;;;;4.35;1.40;;;25.40;99.90;;;;;;10483629;28;20272;-80
2022/07/17 12:36:59;;;;;;;2.88;1.08;;;25.10;99.90;;;;;;10482854;28;20215;-80
2022/07/17 12:42:21;;;;;;;3.38;1.20;;;25.10;99.90;;;;;;10481631;28;20194;-79
2022/07/17 12:47:42;;;;;;;2.20;1.08;;;24.80;99.90;;;;;;10482446;28;20196;-84
2022/07/17 12:53:41;;;;;;;2.85;1.25;;;24.20;99.90;;;;;;10452873;28;20219;-79
2022/07/17 12:59:03;;;;;;;3.78;1.15;;;24.00;99.90;;;;;;10482169;28;20203;-78
2022/07/17 13:04:25;;;;;;;2.38;0.93;;;24.00;99.90;;;;;;10480493;28;20188;-79
2022/07/17 13:10:21;;;;;;;4.80;1.00;;;24.00;99.90;;;;;;10478835;28;20379;-78
2022/07/17 13:16:02;;;;;;;3.40;0.90;;;23.60;93.80;;;;;;10479860;28;20266;-80
2022/07/17 13:21:27;;;;;;;4.10;1.25;;;23.20;99.50;;;;;;10454614;28;20204;-79
2022/07/17 13:27:08;;;;;;;2.38;0.90;;;23.10;96.60;;;;;;10465306;28;20266;-79
2022/07/17 13:32:30;;;;;;;3.08;0.68;;;23.20;64.10;;;;;;10478648;28;20188;-80
2022/07/17 13:37:52;;;;;;;4.13;0.80;;;23.00;99.90;;;;;;10478026;28;20680;-80
2022/07/17 13:43:13;;;;;;;4.47;1.00;;;22.90;67.50;;;;;;10464267;28;20191;-80
2022/07/17 13:48:35;;;;;;;3.28;0.93;;;22.80;91.00;;;;;;10462981;28;20234;-79
2022/07/17 13:54:21;;;;;;;3.10;0.88;;;22.60;73.20;;;;;;10479149;28;20223;-80
2022/07/17 13:59:44;;;;;;;3.28;0.80;;;22.60;95.30;;;;;;10463650;28;20423;-78
2022/07/17 14:05:07;;;;;;;2.22;0.93;;;22.60;99.90;;;;;;10478019;28;20390;-80
2022/07/17 14:10:29;;;;;;;5.70;1.00;;;22.50;53.10;;;;;;10477916;28;20223;-83
2022/07/17 14:15:50;;;;;;;2.25;0.90;;;22.40;96.20;;;;;;10479110;28;20227;-81
2022/07/17 14:21:12;;;;;;;3.45;1.10;;;22.20;99.90;;;;;;10476847;28;20202;-81
2022/07/17 14:26:35;;;;;;;2.63;1.10;;;22.10;99.90;;;;;;10477170;28;20226;-86
2022/07/17 14:31:57;;;;;;;5.60;1.08;;;22.10;99.90;;;;;;10481683;28;20192;-80
2022/07/17 14:37:18;;;;;;;5.97;1.23;;;21.90;1.00;;;;;;10479514;28;20525;-79
2022/07/17 14:42:41;;;;;;;1.55;0.95;;;21.50;1.00;;;;;;10499449;28;20199;-80
2022/07/17 14:48:02;;;;;;;1.73;0.90;;;21.30;99.90;;;;;;10487256;28;20195;-80
2022/07/17 14:53:24;;;;;;;3.95;1.58;;;21.30;1.00;;;;;;10484877;28;20482;-84
2022/07/17 14:58:47;;;;;;;3.15;0.95;;;21.40;1.00;;;;;;10484723;28;20191;-84
2022/07/17 15:04:08;;;;;;;2.75;1.10;;;21.20;1.00;;;;;;10484405;28;20385;-80
2022/07/17 15:09:30;;;;;;;2.83;0.90;;;20.90;1.00;;;;;;10470363;28;20231;-81
2022/07/17 15:14:51;;;;;;;3.80;1.00;;;21.00;1.00;;;;;;10485323;28;20219;-79
2022/07/17 15:20:13;;;;;;;2.50;1.10;;;20.90;1.00;;;;;;10504745;28;20314;-85
2022/07/17 15:25:34;;;;;;;4.90;1.15;;;20.90;1.00;;;;;;10485158;28;20202;-81
2022/07/17 15:30:56;;;;;;;4.57;1.15;;;20.70;1.00;;;;;;10484835;28;20196;-79
2022/07/17 15:36:24;;;;;;;1.17;0.85;;;20.60;1.00;;;;;;10486016;28;20227;-84
2022/07/17 15:41:46;;;;;;;1.83;0.77;;;20.50;1.00;;;;;;10482657;28;20265;-80
2022/07/17 15:47:07;;;;;;;2.63;0.80;;;20.50;1.00;;;;;;10468864;28;20199;-83
2022/07/17 15:52:29;;;;;;;4.65;1.30;;;20.20;1.00;;;;;;10478471;28;20225;-79
2022/07/17 15:57:50;;;;;;;3.15;1.00;;;20.20;99.90;;;;;;10496140;28;20215;-79
2022/07/17 16:03:11;;;;;;;4.07;1.38;;;20.10;99.90;;;;;;10482298;28;20199;-79
2022/07/17 16:08:33;;;;;;;2.50;1.13;;;20.10;1.00;;;;;;10481693;28;20202;-80
2022/07/17 16:13:54;;;;;;;3.40;1.42;;;20.00;1.00;;;;;;10467489;28;20215;-79
2022/07/17 16:19:16;;;;;;;5.07;1.38;;;20.00;1.00;;;;;;10482311;28;20245;-80
2022/07/17 16:24:37;;;;;;;5.90;1.50;;;19.90;99.90;;;;;;10481163;28;20517;-79
2022/07/17 16:29:59;;;;;;;6.18;1.27;;;19.90;99.90;;;;;;10480923;28;20234;-79
2022/07/17 16:35:21;;;;;;;3.83;1.40;;;19.70;1.00;;;;;;10480656;28;20302;-80
2022/07/17 16:40:42;;;;;;;3.22;0.93;;;19.50;1.00;;;;;;10480364;28;20188;-80
2022/07/17 16:46:04;;;;;;;3.63;1.67;;;19.40;1.00;;;;;;10481490;28;20191;-81
2022/07/17 16:51:26;;;;;;;4.43;1.85;;;19.30;1.00;;;;;;10480086;28;20200;-79
2022/07/17 16:56:47;;;;;;;11.45;1.55;;;19.30;99.90;;;;;;10479507;28;20239;-83
2022/07/17 17:02:09;;;;;;;7.50;1.77;;;19.20;99.90;;;;;;10482367;28;20199;-81
2022/07/17 17:07:31;;;;;;;3.75;1.48;;;19.30;1.00;;;;;;10479731;28;20202;-82
2022/07/17 17:12:52;;;;;;;10.50;1.65;;;19.20;1.00;;;;;;10469500;28;20240;-86
2022/07/17 17:18:13;;;;;;;2.38;1.15;;;19.00;1.00;;;;;;10480002;28;20230;-84
2022/07/17 17:23:35;;;;;;;3.70;1.50;;;18.80;99.90;;;;;;10478870;28;20205;-86
2022/07/17 17:28:56;;;;;;;5.80;1.50;;;18.70;1.00;;;;;;10480164;28;20231;-82
2022/07/17 17:34:18;;;;;;;6.10;2.03;;;18.60;99.90;;;;;;10481712;28;20223;-83
2022/07/17 17:39:39;;;;;;;4.15;1.38;;;18.50;99.90;;;;;;10492195;28;20473;-83
2022/07/17 17:45:01;;;;;;;4.65;1.45;;;18.40;99.90;;;;;;10478700;28;20271;-80
2022/07/17 17:50:22;;;;;;;5.60;1.85;;;18.30;92.60;;;;;;10477806;28;20208;-82
2022/07/17 17:55:45;;;;;;;4.25;1.67;;;18.20;1.00;;;;;;10464120;28;20233;-80
2022/07/17 18:01:06;;;;;;;4.75;1.40;;;18.00;93.10;;;;;;10477822;28;20201;-79
2022/07/17 18:06:31;;;;;;;3.45;1.90;;;17.90;99.90;;;;;;10477758;28;20190;-81
2022/07/17 18:11:53;;;;;;;4.63;1.67;;;17.90;99.90;;;;;;10477044;28;20238;-86
2022/07/17 18:17:14;;;;;;;6.53;1.70;;;17.80;1.00;;;;;;10510007;28;20223;-83
2022/07/17 18:22:35;;;;;;;6.22;1.85;;;17.60;1.00;;;;;;10478172;28;20265;-85
2022/07/17 18:27:57;;;;;;;7.75;1.60;;;17.50;87.50;;;;;;10476953;28;20447;-79
2022/07/17 18:33:18;;;;;;;3.88;1.70;;;17.50;99.90;;;;;;10462844;28;20825;-80
2022/07/17 18:38:40;;;;;;;6.20;1.70;;;17.40;99.90;;;;;;10476926;28;20269;-81
2022/07/17 18:44:02;;;;;;;4.30;1.55;;;17.30;99.90;;;;;;10476946;28;20206;-80
2022/07/17 18:49:23;;;;;;;7.18;2.03;;;17.20;99.90;;;;;;10447789;28;20272;-81
2022/07/17 18:54:45;;;;;;;4.93;1.65;;;17.20;49.10;;;;;;10464951;28;20300;-80
2022/07/17 19:00:07;;;;;;;4.82;1.80;;;17.10;42.10;;;;;;10476756;28;20551;-80
2022/07/17 19:05:30;;;;;;;4.22;1.55;;;17.00;99.90;;;;;;10476437;28;20191;-84
2022/07/17 19:10:52;;;;;;;5.13;1.50;;;16.90;99.90;;;;;;10476043;28;20236;-83
2022/07/17 19:16:14;;;;;;;4.70;1.95;;;16.70;99.90;;;;;;10487417;28;20236;-81
2022/07/17 19:21:35;;;;;;;3.30;1.50;;;16.70;99.90;;;;;;10485036;28;20196;-85
2022/07/17 19:26:57;;;;;;;2.63;1.50;;;16.60;99.90;;;;;;10484498;28;20199;-79
2022/07/17 19:32:18;;;;;;;3.60;1.23;;;16.60;99.90;;;;;;10497581;28;20187;-80
2022/07/17 19:37:40;;;;;;;6.05;1.50;;;16.50;99.90;;;;;;10483640;28;20233;-81
2022/07/17 19:43:01;;;;;;;2.92;1.27;;;16.50;99.90;;;;;;10483525;28;20197;-84
2022/07/17 19:48:23;;;;;;;3.65;1.65;;;16.50;1.00;;;;;;10482908;28;20378;-79
2022/07/17 19:53:44;;;;;;;4.05;1.42;;;16.50;1.00;;;;;;10482964;28;20243;-83
2022/07/17 19:59:09;;;;;;;7.50;3.17;;;16.40;1.00;;;;;;10465727;28;20222;-80
2022/07/17 20:04:31;;;;;;;8.80;4.38;;;16.30;1.00;;;;;;10468409;28;20211;-81
2022/07/17 20:09:53;;;;;;;12.05;4.82;;;16.10;1.00;;;;;;10481874;28;20532;-82
2022/07/17 20:15:15;;;;;;;15.20;4.10;;;;;;;;;;10484399;28;20254;-85
2022/07/17 20:20:36;;;;;;;6.97;3.83;;;16.00;1.00;;;;;;10467617;28;20224;-80
2022/07/17 20:25:58;;;;;;;4.78;2.72;;;15.90;1.00;;;;;;10481104;28;20224;-80
2022/07/17 20:31:19;;;;;;;6.97;2.50;;;15.80;1.00;;;;;;10468795;28;20185;-82
2022/07/17 20:36:48;;;;;;;12.48;4.47;;;15.80;1.00;;;;;;10480601;28;20227;-82
2022/07/17 20:42:09;;;;;;;15.95;5.70;;;;;;;;;;10480836;28;20206;-81
2022/07/17 20:47:31;;;;;;;12.73;4.28;;;15.70;1.00;;;;;;10466829;28;20209;-80
2022/07/17 20:52:54;;;;;;;13.88;5.68;;;15.60;1.00;;;;;;10479647;28;20504;-79
2022/07/17 20:58:16;;;;;;;20.00;11.80;;;15.40;1.00;;;;;;10480146;28;20218;-86
2022/07/17 21:03:38;;;;;;;15.85;6.85;;;15.30;1.00;;;;;;10466037;28;20481;-84
2022/07/17 21:08:59;;;;;;;11.60;4.85;;;15.30;1.00;;;;;;10493787;28;20190;-85
2022/07/17 21:14:21;;;;;;;9.55;4.22;;;15.30;1.00;;;;;;10479811;28;20524;-85
2022/07/17 21:19:42;;;;;;;12.00;4.65;;;15.30;1.00;;;;;;10469601;28;20285;-84
2022/07/17 21:25:05;;;;;;;5.03;2.75;;;15.20;1.00;;;;;;10479440;28;20194;-84
2022/07/17 21:30:27;;;;;;;4.93;2.47;;;15.20;1.00;;;;;;10478663;28;20497;-82
2022/07/17 21:35:48;;;;;;;4.78;3.47;;;15.20;1.00;;;;;;10478727;28;20279;-80
2022/07/17 21:41:10;;;;;;;5.28;3.03;;;15.10;1.00;;;;;;10478971;28;20244;-85
2022/07/17 21:46:32;;;;;;;5.38;3.10;;;15.10;1.00;;;;;;10463305;28;20206;-81
2022/07/17 21:51:53;;;;;;;9.40;3.40;;;15.00;1.00;;;;;;10478128;28;20257;-79
2022/07/17 21:57:15;;;;;;;7.82;3.33;;;15.00;1.00;;;;;;10480942;28;20278;-86
2022/07/17 22:02:37;;;;;;;6.93;2.95;;;15.10;1.00;;;;;;10477780;28;20268;-80
2022/07/17 22:07:59;;;;;;;5.90;2.22;;;15.10;1.00;;;;;;10492197;28;20196;-82
2022/07/17 22:13:21;;;;;;;5.18;2.60;;;15.10;1.00;;;;;;10491348;28;20272;-81
2022/07/17 22:19:21;;;;;;;5.28;2.28;;;15.10;1.00;;;;;;10505412;28;20244;-83
2022/07/17 22:24:43;;;;;;;5.25;2.30;;;15.10;1.00;;;;;;10477246;28;20244;-83
2022/07/17 22:30:30;;;;;;;4.25;2.17;;;15.10;1.00;;;;;;10477513;28;20197;-84
2022/07/17 22:42:46;;;;;;;3.42;1.90;;;15.10;1.00;;;;;;10476382;28;20214;-80
2022/07/17 22:48:07;;;;;;;3.53;1.95;;;15.10;1.00;;;;;;10479636;28;20513;-84
2022/07/17 22:53:29;;;;;;;3.00;1.80;;;15.10;1.00;;;;;;10476392;28;20397;-85
2022/07/17 22:58:50;;;;;;;3.10;1.63;;;15.10;1.00;;;;;;10479201;28;20226;-85
2022/07/17 23:04:12;;;;;;;4.00;1.60;;;15.10;1.00;;;;;;10470538;28;20491;-83
2022/07/17 23:09:33;;;;;;;5.28;2.40;;;15.10;1.00;;;;;;10458942;28;20308;-83
2022/07/17 23:14:54;;;;;;;4.10;1.70;;;15.00;1.00;;;;;;10486836;28;20224;-83
2022/07/17 23:20:16;;;;;;;4.95;1.52;;;15.00;1.00;;;;;;10508653;28;20288;-82
2022/07/17 23:25:37;;;;;;;4.18;2.10;;;15.00;1.00;;;;;;10483901;28;20270;-82
2022/07/17 23:30:58;;;;;;;5.60;2.50;;;15.00;1.00;;;;;;10485292;28;20193;-85
2022/07/17 23:36:20;;;;;;;6.97;1.98;;;15.00;1.00;;;;;;10484885;28;20221;-84
2022/07/17 23:41:42;;;;;;;5.57;2.03;;;14.90;1.00;;;;;;10469284;28;20199;-81
2022/07/17 23:47:04;;;;;;;2.88;1.75;;;14.90;1.00;;;;;;10441669;28;20453;-82
2022/07/17 23:52:25;;;;;;;2.95;1.45;;;14.90;1.00;;;;;;10478932;28;20503;-81
2022/07/17 23:57:47;;;;;;;6.35;2.13;;;14.90;1.00;;;;;;10457965;28;20229;-79
